createdAt,value
2022-10-10T00:00:51.681Z,2.83
2022-10-10T00:01:53.425Z,3.17
2022-10-10T00:02:55.137Z,2.90
2022-10-10T00:03:56.908Z,3.03
2022-10-10T00:04:58.653Z,2.80
2022-10-10T00:06:00.432Z,3.07
2022-10-10T00:07:02.291Z,3.20
2022-10-10T00:08:05.533Z,3.13
2022-10-10T00:09:07.338Z,2.97
2022-10-10T00:10:09.368Z,3.03
2022-10-10T00:11:13.537Z,3.00
2022-10-10T00:12:15.291Z,2.80
2022-10-10T00:13:17.022Z,3.20
2022-10-10T00:14:18.816Z,3.33
2022-10-10T00:15:20.660Z,2.80
2022-10-10T00:16:22.746Z,2.77
2022-10-10T00:17:24.494Z,3.03
2022-10-10T00:18:26.208Z,3.00
2022-10-10T00:19:27.955Z,2.93
2022-10-10T00:20:29.963Z,3.30
2022-10-10T00:21:31.696Z,3.43
2022-10-10T00:22:33.378Z,3.03
2022-10-10T00:23:35.581Z,3.20
2022-10-10T00:24:37.644Z,3.23
2022-10-10T00:25:39.400Z,2.80
2022-10-10T00:26:41.165Z,3.20
2022-10-10T00:27:42.878Z,3.17
2022-10-10T00:28:44.646Z,3.23
2022-10-10T00:29:46.430Z,3.40
2022-10-10T00:30:48.160Z,3.10
2022-10-10T00:31:49.898Z,3.07
2022-10-10T00:32:51.974Z,3.10
2022-10-10T00:33:54.030Z,2.93
2022-10-10T00:34:55.763Z,3.20
2022-10-10T00:35:57.529Z,3.30
2022-10-10T00:36:59.243Z,3.07
2022-10-10T00:38:01.017Z,3.70
2022-10-10T00:39:02.744Z,3.30
2022-10-10T00:40:06.191Z,3.33
2022-10-10T00:41:08.352Z,3.30
2022-10-10T00:42:16.104Z,3.40
2022-10-10T00:43:18.962Z,3.23
2022-10-10T00:44:20.686Z,3.33
2022-10-10T00:45:32.751Z,3.20
2022-10-10T00:46:35.524Z,3.13
2022-10-10T00:47:37.316Z,2.83
2022-10-10T00:48:44.372Z,3.03
2022-10-10T00:49:46.109Z,3.37
2022-10-10T00:51:12.771Z,3.27
2022-10-10T00:52:14.511Z,3.17
2022-10-10T00:53:21.678Z,3.67
2022-10-10T00:54:26.063Z,3.63
2022-10-10T00:55:28.268Z,3.40
2022-10-10T00:56:44.185Z,3.40
2022-10-10T00:57:46.288Z,2.93
2022-10-10T00:58:54.147Z,3.10
2022-10-10T00:59:57.449Z,3.43
2022-10-10T01:00:59.323Z,3.50
2022-10-10T01:02:01.135Z,3.57
2022-10-10T01:03:03.006Z,3.60
2022-10-10T01:04:05.588Z,3.17
2022-10-10T01:05:07.903Z,3.33
2022-10-10T01:06:10.417Z,3.17
2022-10-10T01:07:28.191Z,3.60
2022-10-10T01:08:30.022Z,3.43
2022-10-10T01:09:34.074Z,3.17
2022-10-10T01:11:06.753Z,3.37
2022-10-10T01:12:26.832Z,3.27
2022-10-10T01:13:46.315Z,3.00
2022-10-10T01:15:06.858Z,3.47
2022-10-10T01:16:23.455Z,3.80
2022-10-10T01:17:38.171Z,3.60
2022-10-10T01:18:56.053Z,3.23
2022-10-10T01:20:30.995Z,3.50
2022-10-10T01:21:49.394Z,3.47
2022-10-10T01:23:24.316Z,3.00
2022-10-10T01:24:56.769Z,3.50
2022-10-10T01:26:20.327Z,3.33
2022-10-10T01:27:41.549Z,3.17
2022-10-10T01:29:30.091Z,3.70
2022-10-10T01:30:35.048Z,3.10
2022-10-10T01:31:44.545Z,3.33
2022-10-10T01:32:53.867Z,3.23
2022-10-10T01:34:16.777Z,3.80
2022-10-10T01:35:50.729Z,3.43
2022-10-10T01:37:45.504Z,4.00
2022-10-10T01:39:05.171Z,3.43
2022-10-10T01:40:25.300Z,3.53
2022-10-10T01:41:56.319Z,3.57
2022-10-10T01:43:04.003Z,3.57
2022-10-10T01:44:05.771Z,4.00
2022-10-10T01:45:08.264Z,4.00
2022-10-10T01:46:18.248Z,3.53
2022-10-10T01:47:22.532Z,3.60
2022-10-10T01:48:30.957Z,3.57
2022-10-10T01:49:34.927Z,3.70
2022-10-10T01:50:55.438Z,3.40
2022-10-10T01:52:22.541Z,3.67
2022-10-10T01:53:35.468Z,2.93
2022-10-10T01:55:08.884Z,3.57
2022-10-10T01:56:33.647Z,3.80
2022-10-10T01:57:59.528Z,3.83
2022-10-10T01:59:46.876Z,3.57
2022-10-10T02:01:17.691Z,3.50
2022-10-10T02:02:58.400Z,3.47
2022-10-10T02:04:16.311Z,4.03
2022-10-10T02:05:36.877Z,3.33
2022-10-10T02:06:47.269Z,3.67
2022-10-10T02:08:09.926Z,3.80
2022-10-10T02:09:19.871Z,4.27
2022-10-10T02:10:33.808Z,3.67
2022-10-10T02:11:39.318Z,3.93
2022-10-10T02:12:41.525Z,3.60
2022-10-10T02:13:54.892Z,3.80
2022-10-10T02:15:08.335Z,3.80
2022-10-10T02:16:25.221Z,4.03
2022-10-10T02:17:27.488Z,3.63
2022-10-10T02:18:34.708Z,3.53
2022-10-10T02:19:42.097Z,3.73
2022-10-10T02:20:45.763Z,3.77
2022-10-10T02:21:51.074Z,3.70
2022-10-10T02:22:55.768Z,3.63
2022-10-10T02:24:03.883Z,3.90
2022-10-10T02:25:07.109Z,3.40
2022-10-10T02:26:13.790Z,3.67
2022-10-10T02:27:29.936Z,3.60
2022-10-10T02:28:51.307Z,3.70
2022-10-10T02:29:56.370Z,3.80
2022-10-10T02:31:05.434Z,3.50
2022-10-10T02:32:24.196Z,3.50
2022-10-10T02:33:38.915Z,3.57
2022-10-10T02:34:49.444Z,3.60
2022-10-10T02:35:53.306Z,3.90
2022-10-10T02:37:01.569Z,3.93
2022-10-10T02:38:07.469Z,3.80
2022-10-10T02:39:12.323Z,4.00
2022-10-10T02:40:22.345Z,3.97
2022-10-10T02:41:25.137Z,3.50
2022-10-10T02:42:29.174Z,3.70
2022-10-10T02:43:34.505Z,3.50
2022-10-10T02:44:39.108Z,3.57
2022-10-10T02:45:41.764Z,3.73
2022-10-10T02:46:43.692Z,3.50
2022-10-10T02:47:46.138Z,3.90
2022-10-10T02:48:47.866Z,3.90
2022-10-10T02:49:50.323Z,3.70
2022-10-10T02:50:52.169Z,2.97
2022-10-10T02:51:54.038Z,3.67
2022-10-10T02:52:57.012Z,3.80
2022-10-10T02:53:58.806Z,3.70
2022-10-10T02:55:00.650Z,3.53
2022-10-10T02:56:02.346Z,3.80
2022-10-10T02:57:04.239Z,3.60
2022-10-10T02:58:06.191Z,3.63
2022-10-10T02:59:07.908Z,3.83
2022-10-10T03:00:10.736Z,3.43
2022-10-10T03:01:12.499Z,3.87
2022-10-10T03:02:14.337Z,4.00
2022-10-10T03:03:16.137Z,3.80
2022-10-10T03:04:18.166Z,3.50
2022-10-10T03:05:19.897Z,4.43
2022-10-10T03:06:21.603Z,3.87
2022-10-10T03:07:23.523Z,3.50
2022-10-10T03:08:25.291Z,3.40
2022-10-10T03:09:27.003Z,3.70
2022-10-10T03:10:28.757Z,3.83
2022-10-10T03:11:31.035Z,3.63
2022-10-10T03:12:34.264Z,3.47
2022-10-10T03:13:36.058Z,3.97
2022-10-10T03:14:37.786Z,4.20
2022-10-10T03:15:39.513Z,3.97
2022-10-10T03:16:41.287Z,4.20
2022-10-10T03:17:43.229Z,4.33
2022-10-10T03:18:44.961Z,4.20
2022-10-10T03:19:46.700Z,3.97
2022-10-10T03:20:54.996Z,4.07
2022-10-10T03:21:56.690Z,4.33
2022-10-10T03:22:58.402Z,4.40
2022-10-10T03:24:00.131Z,4.23
2022-10-10T03:25:01.848Z,4.43
2022-10-10T03:26:04.730Z,4.33
2022-10-10T03:27:06.524Z,4.63
2022-10-10T03:28:08.931Z,4.40
2022-10-10T03:29:10.706Z,4.53
2022-10-10T03:30:13.048Z,4.67
2022-10-10T03:31:14.814Z,4.80
2022-10-10T03:32:16.529Z,4.90
2022-10-10T03:33:18.235Z,4.83
2022-10-10T03:34:19.946Z,4.30
2022-10-10T03:35:21.656Z,4.13
2022-10-10T03:36:23.463Z,4.63
2022-10-10T03:37:25.331Z,4.53
2022-10-10T03:38:27.035Z,5.07
2022-10-10T03:39:28.830Z,4.50
2022-10-10T03:40:31.197Z,4.90
2022-10-10T03:41:32.925Z,4.60
2022-10-10T03:42:34.703Z,4.70
2022-10-10T03:43:36.473Z,4.47
2022-10-10T03:44:38.177Z,4.40
2022-10-10T03:45:44.040Z,4.63
2022-10-10T03:46:45.745Z,4.50
2022-10-10T03:47:47.589Z,4.67
2022-10-10T03:48:49.959Z,4.50
2022-10-10T03:49:51.686Z,4.47
2022-10-10T03:50:53.431Z,4.27
2022-10-10T03:51:55.483Z,4.77
2022-10-10T03:52:57.281Z,4.63
2022-10-10T03:53:59.008Z,4.20
2022-10-10T03:55:00.768Z,4.67
2022-10-10T03:56:02.492Z,4.10
2022-10-10T03:57:04.285Z,4.30
2022-10-10T03:58:05.984Z,4.10
2022-10-10T03:59:07.744Z,4.63
2022-10-10T04:00:10.400Z,4.30
2022-10-10T04:01:12.306Z,4.30
2022-10-10T04:02:14.055Z,3.90
2022-10-10T04:03:15.786Z,3.63
2022-10-10T04:04:17.584Z,3.93
2022-10-10T04:05:19.668Z,3.80
2022-10-10T04:06:21.855Z,3.87
2022-10-10T04:07:23.603Z,4.20
2022-10-10T04:08:25.715Z,4.17
2022-10-10T04:09:27.522Z,4.33
2022-10-10T04:10:29.297Z,3.93
2022-10-10T04:11:31.934Z,3.70
2022-10-10T04:12:34.135Z,4.17
2022-10-10T04:13:35.907Z,3.80
2022-10-10T04:14:37.610Z,4.17
2022-10-10T04:15:39.487Z,3.63
2022-10-10T04:16:41.214Z,3.70
2022-10-10T04:17:42.925Z,3.90
2022-10-10T04:18:44.784Z,3.70
2022-10-10T04:19:46.513Z,3.90
2022-10-10T04:20:48.294Z,4.10
2022-10-10T04:21:50.059Z,3.77
2022-10-10T04:22:52.414Z,4.03
2022-10-10T04:23:54.362Z,4.37
2022-10-10T04:24:56.099Z,3.90
2022-10-10T04:25:57.879Z,3.50
2022-10-10T04:26:59.598Z,4.13
2022-10-10T04:28:01.588Z,4.00
2022-10-10T04:29:04.262Z,3.73
2022-10-10T04:30:07.250Z,4.17
2022-10-10T04:31:09.150Z,4.20
2022-10-10T04:32:10.904Z,3.90
2022-10-10T04:33:12.772Z,3.87
2022-10-10T04:34:15.135Z,3.43
2022-10-10T04:35:16.915Z,3.90
2022-10-10T04:36:18.984Z,4.10
2022-10-10T04:37:20.747Z,3.50
2022-10-10T04:38:22.756Z,3.50
2022-10-10T04:39:24.604Z,3.80
2022-10-10T04:40:27.077Z,3.40
2022-10-10T04:41:28.933Z,3.73
2022-10-10T04:42:30.883Z,3.70
2022-10-10T04:43:32.604Z,3.57
2022-10-10T04:44:34.327Z,3.50
2022-10-10T04:45:37.658Z,3.60
2022-10-10T04:46:39.626Z,3.60
2022-10-10T04:47:41.344Z,3.40
2022-10-10T04:48:43.048Z,3.47
2022-10-10T04:49:44.895Z,4.00
2022-10-10T04:50:56.031Z,3.80
2022-10-10T04:51:57.736Z,3.60
2022-10-10T04:52:59.524Z,3.77
2022-10-10T04:54:01.356Z,3.67
2022-10-10T04:55:03.534Z,3.70
2022-10-10T04:56:05.525Z,3.97
2022-10-10T04:57:07.261Z,3.50
2022-10-10T04:58:08.995Z,3.90
2022-10-10T04:59:10.737Z,3.70
2022-10-10T05:00:13.086Z,4.07
2022-10-10T05:01:14.854Z,4.23
2022-10-10T05:02:16.691Z,3.90
2022-10-10T05:03:18.701Z,3.97
2022-10-10T05:04:20.593Z,4.10
2022-10-10T05:05:22.347Z,3.80
2022-10-10T05:06:24.102Z,4.13
2022-10-10T05:07:25.928Z,4.07
2022-10-10T05:08:27.730Z,4.00
2022-10-10T05:09:29.515Z,4.27
2022-10-10T05:10:35.650Z,4.10
2022-10-10T05:11:37.370Z,4.57
2022-10-10T05:12:39.126Z,4.93
2022-10-10T05:13:40.890Z,4.40
2022-10-10T05:14:47.288Z,4.70
2022-10-10T05:15:52.961Z,4.10
2022-10-10T05:16:54.720Z,4.43
2022-10-10T05:17:56.460Z,4.53
2022-10-10T05:18:58.243Z,4.30
2022-10-10T05:19:59.990Z,4.20
2022-10-10T05:21:03.864Z,3.93
2022-10-10T05:22:06.055Z,4.40
2022-10-10T05:23:07.795Z,4.37
2022-10-10T05:24:09.526Z,4.03
2022-10-10T05:25:11.913Z,3.77
2022-10-10T05:26:14.122Z,4.10
2022-10-10T05:27:15.855Z,4.33
2022-10-10T05:28:18.328Z,3.97
2022-10-10T05:29:20.096Z,4.07
2022-10-10T05:30:21.935Z,3.90
2022-10-10T05:31:23.713Z,3.97
2022-10-10T05:32:25.525Z,4.23
2022-10-10T05:33:27.262Z,4.20
2022-10-10T05:34:29.054Z,4.23
2022-10-10T05:35:31.179Z,4.20
2022-10-10T05:36:32.904Z,3.90
2022-10-10T05:37:35.361Z,4.27
2022-10-10T05:38:39.016Z,3.93
2022-10-10T05:39:40.909Z,3.67
2022-10-10T05:40:42.908Z,4.40
2022-10-10T05:41:44.642Z,4.23
2022-10-10T05:42:46.414Z,4.23
2022-10-10T05:43:48.209Z,3.87
2022-10-10T05:44:49.957Z,4.33
2022-10-10T05:45:51.762Z,3.90
2022-10-10T05:46:53.513Z,3.93
2022-10-10T05:47:55.235Z,4.20
2022-10-10T05:48:57.393Z,4.27
2022-10-10T05:49:59.081Z,3.80
2022-10-10T05:51:01.735Z,4.40
2022-10-10T05:52:03.541Z,3.60
2022-10-10T05:53:06.742Z,3.93
2022-10-10T05:54:08.743Z,4.20
2022-10-10T05:55:10.463Z,4.17
2022-10-10T05:56:12.229Z,4.10
2022-10-10T05:57:16.364Z,4.10
2022-10-10T05:58:18.578Z,4.13
2022-10-10T05:59:20.325Z,4.20
2022-10-10T06:00:22.186Z,4.10
2022-10-10T06:01:23.931Z,4.30
2022-10-10T06:02:25.696Z,4.20
2022-10-10T06:03:27.457Z,4.37
2022-10-10T06:04:29.184Z,4.37
2022-10-10T06:05:30.887Z,4.63
2022-10-10T06:06:33.067Z,4.87
2022-10-10T06:07:52.307Z,4.90
2022-10-10T06:08:57.043Z,4.20
2022-10-10T06:09:58.732Z,4.47
2022-10-10T06:11:08.191Z,4.83
2022-10-10T06:12:09.956Z,4.93
2022-10-10T06:13:20.287Z,4.53
2022-10-10T06:14:24.976Z,4.20
2022-10-10T06:15:26.809Z,4.60
2022-10-10T06:16:28.648Z,4.93
2022-10-10T06:17:30.385Z,4.90
2022-10-10T06:18:32.109Z,4.30
2022-10-10T06:19:33.892Z,4.07
2022-10-10T06:20:40.667Z,4.63
2022-10-10T06:21:42.499Z,4.80
2022-10-10T06:22:44.242Z,4.43
2022-10-10T06:23:54.306Z,4.90
2022-10-10T06:24:56.053Z,6.47
2022-10-10T06:25:57.818Z,6.10
2022-10-10T06:26:59.632Z,6.50
2022-10-10T06:28:01.940Z,5.80
2022-10-10T06:29:03.782Z,5.53
2022-10-10T06:30:06.413Z,5.23
2022-10-10T06:31:11.385Z,5.43
2022-10-10T06:32:13.153Z,4.70
2022-10-10T06:33:15.994Z,4.80
2022-10-10T06:34:17.812Z,4.30
2022-10-10T06:35:20.042Z,4.90
2022-10-10T06:36:21.724Z,4.93
2022-10-10T06:37:23.429Z,5.30
2022-10-10T06:38:27.466Z,6.17
2022-10-10T06:39:29.425Z,5.80
2022-10-10T06:40:31.121Z,5.30
2022-10-10T06:41:32.851Z,5.97
2022-10-10T06:42:34.575Z,5.87
2022-10-10T06:43:36.815Z,5.37
2022-10-10T06:44:38.578Z,5.30
2022-10-10T06:45:44.962Z,5.67
2022-10-10T06:46:46.720Z,5.97
2022-10-10T06:47:48.430Z,5.07
2022-10-10T06:48:50.269Z,5.37
2022-10-10T06:49:52.000Z,4.50
2022-10-10T06:51:06.483Z,5.10
2022-10-10T06:52:08.402Z,4.97
2022-10-10T06:53:10.191Z,5.03
2022-10-10T06:54:12.060Z,5.17
2022-10-10T06:55:13.865Z,5.07
2022-10-10T06:56:24.908Z,5.67
2022-10-10T06:57:29.106Z,5.10
2022-10-10T06:58:32.100Z,5.30
2022-10-10T06:59:34.346Z,4.77
2022-10-10T07:00:36.049Z,4.60
2022-10-10T07:01:37.912Z,5.23
2022-10-10T07:02:40.886Z,4.87
2022-10-10T07:03:42.673Z,4.70
2022-10-10T07:04:44.454Z,5.10
2022-10-10T07:05:54.714Z,4.20
2022-10-10T07:06:56.683Z,4.23
2022-10-10T07:07:58.398Z,4.07
2022-10-10T07:09:00.138Z,4.50
2022-10-10T07:10:02.259Z,4.97
2022-10-10T07:11:04.976Z,4.53
2022-10-10T07:12:06.750Z,4.47
2022-10-10T07:13:08.609Z,4.90
2022-10-10T07:14:10.305Z,4.40
2022-10-10T07:15:12.678Z,4.50
2022-10-10T07:16:14.403Z,4.27
2022-10-10T07:17:16.136Z,4.90
2022-10-10T07:18:18.954Z,5.00
2022-10-10T07:19:21.571Z,4.80
2022-10-10T07:20:23.302Z,5.23
2022-10-10T07:21:25.016Z,4.83
2022-10-10T07:22:26.812Z,4.97
2022-10-10T07:23:29.429Z,4.50
2022-10-10T07:24:31.367Z,4.47
2022-10-10T07:25:33.453Z,4.57
2022-10-10T07:26:39.231Z,5.07
2022-10-10T07:27:40.943Z,4.67
2022-10-10T07:28:42.731Z,5.73
2022-10-10T07:29:44.579Z,5.77
2022-10-10T07:30:46.868Z,5.37
2022-10-10T07:31:48.653Z,5.23
2022-10-10T07:32:52.936Z,4.87
2022-10-10T07:33:55.003Z,4.57
2022-10-10T07:34:58.353Z,4.53
2022-10-10T07:36:00.222Z,4.70
2022-10-10T07:37:01.963Z,4.60
2022-10-10T07:38:03.698Z,4.90
2022-10-10T07:39:05.681Z,4.70
2022-10-10T07:40:09.174Z,4.57
2022-10-10T07:41:13.428Z,4.40
2022-10-10T07:42:15.302Z,4.50
2022-10-10T07:43:18.388Z,4.47
2022-10-10T07:44:20.780Z,4.30
2022-10-10T07:45:22.531Z,4.70
2022-10-10T07:46:24.437Z,4.03
2022-10-10T07:47:26.175Z,4.77
2022-10-10T07:48:28.146Z,4.77
2022-10-10T07:49:29.860Z,4.60
2022-10-10T07:50:31.580Z,4.63
2022-10-10T07:51:33.417Z,4.70
2022-10-10T07:52:35.759Z,4.67
2022-10-10T07:53:37.699Z,4.87
2022-10-10T07:54:39.420Z,5.10
2022-10-10T07:55:44.440Z,5.07
2022-10-10T07:56:46.183Z,4.90
2022-10-10T07:57:52.531Z,4.60
2022-10-10T07:58:55.149Z,4.53
2022-10-10T07:59:56.902Z,4.50
2022-10-10T08:01:07.475Z,4.50
2022-10-10T08:02:10.218Z,4.67
2022-10-10T08:03:12.480Z,5.33
2022-10-10T08:04:14.543Z,4.60
2022-10-10T08:05:16.346Z,4.40
2022-10-10T08:06:18.640Z,5.00
2022-10-10T08:07:20.775Z,4.97
2022-10-10T08:08:22.540Z,5.33
2022-10-10T08:09:24.666Z,5.00
2022-10-10T08:10:28.583Z,4.77
2022-10-10T08:11:30.306Z,5.03
2022-10-10T08:12:32.074Z,5.27
2022-10-10T08:13:35.030Z,5.10
2022-10-10T08:14:37.019Z,5.23
2022-10-10T08:15:42.159Z,4.90
2022-10-10T08:16:43.872Z,5.27
2022-10-10T08:17:45.682Z,5.20
2022-10-10T08:18:47.545Z,4.80
2022-10-10T08:19:49.315Z,5.33
2022-10-10T08:21:08.657Z,4.80
2022-10-10T08:22:10.475Z,4.87
2022-10-10T08:23:12.560Z,4.73
2022-10-10T08:24:17.293Z,5.00
2022-10-10T08:25:19.037Z,5.23
2022-10-10T08:26:20.856Z,5.10
2022-10-10T08:27:22.898Z,4.93
2022-10-10T08:28:24.673Z,5.67
2022-10-10T08:29:26.523Z,5.60
2022-10-10T08:30:28.252Z,5.70
2022-10-10T08:31:30.815Z,5.70
2022-10-10T08:32:32.556Z,5.30
2022-10-10T08:33:35.145Z,4.87
2022-10-10T08:34:36.866Z,4.60
2022-10-10T08:35:39.969Z,5.50
2022-10-10T08:36:41.826Z,5.00
2022-10-10T08:37:43.655Z,5.30
2022-10-10T08:38:46.568Z,5.23
2022-10-10T08:39:48.279Z,5.17
2022-10-10T08:40:56.553Z,4.93
2022-10-10T08:42:03.252Z,4.90
2022-10-10T08:43:09.190Z,5.30
2022-10-10T08:44:55.178Z,4.87
2022-10-10T08:46:00.117Z,4.40
2022-10-10T08:47:20.787Z,5.10
2022-10-10T08:48:29.965Z,4.77
2022-10-10T08:49:58.948Z,5.00
2022-10-10T08:51:10.781Z,4.40
2022-10-10T08:52:41.341Z,4.93
2022-10-10T08:53:49.501Z,4.67
2022-10-10T08:54:58.187Z,4.73
2022-10-10T08:56:02.364Z,4.83
2022-10-10T08:57:21.177Z,4.63
2022-10-10T08:58:38.960Z,4.83
2022-10-10T08:59:43.217Z,4.60
2022-10-10T09:01:15.236Z,4.53
2022-10-10T09:02:29.669Z,5.03
2022-10-10T09:03:49.173Z,4.47
2022-10-10T09:04:50.948Z,4.47
2022-10-10T09:06:30.764Z,5.10
2022-10-10T09:08:21.271Z,4.53
2022-10-10T09:09:51.653Z,4.50
2022-10-10T09:11:13.610Z,4.87
2022-10-10T09:12:43.441Z,4.33
2022-10-10T09:14:08.348Z,4.17
2022-10-10T09:15:17.099Z,4.50
2022-10-10T09:16:49.272Z,3.87
2022-10-10T09:18:15.261Z,4.50
2022-10-10T09:19:44.663Z,4.13
2022-10-10T09:21:20.352Z,3.87
2022-10-10T09:22:34.325Z,3.90
2022-10-10T09:24:00.025Z,4.03
2022-10-10T09:25:16.086Z,3.93
2022-10-10T09:26:25.737Z,3.90
2022-10-10T09:27:40.584Z,3.90
2022-10-10T09:29:19.925Z,3.70
2022-10-10T09:30:21.990Z,3.37
2022-10-10T09:31:32.846Z,3.63
2022-10-10T09:33:10.869Z,3.37
2022-10-10T09:34:32.245Z,3.33
2022-10-10T09:35:39.014Z,3.27
2022-10-10T09:36:41.664Z,3.30
2022-10-10T09:37:48.645Z,3.50
2022-10-10T09:38:57.331Z,3.47
2022-10-10T09:40:14.536Z,3.87
2022-10-10T09:41:47.606Z,3.57
2022-10-10T09:42:49.648Z,3.57
2022-10-10T09:44:04.022Z,4.30
2022-10-10T09:45:28.413Z,3.47
2022-10-10T09:46:30.520Z,3.40
2022-10-10T09:47:33.532Z,3.13
2022-10-10T09:48:40.356Z,3.10
2022-10-10T09:49:44.320Z,3.43
2022-10-10T09:50:46.116Z,3.40
2022-10-10T09:51:49.492Z,3.23
2022-10-10T09:52:52.996Z,2.97
2022-10-10T09:53:54.931Z,3.10
2022-10-10T09:55:05.415Z,3.47
2022-10-10T09:56:14.600Z,2.90
2022-10-10T09:57:23.353Z,3.00
2022-10-10T09:58:44.405Z,3.07
2022-10-10T09:59:46.834Z,2.90
2022-10-10T10:00:48.746Z,3.27
2022-10-10T10:02:04.062Z,3.27
2022-10-10T10:03:15.027Z,3.10
2022-10-10T10:04:28.708Z,2.70
2022-10-10T10:05:31.314Z,2.87
2022-10-10T10:06:33.667Z,3.13
2022-10-10T10:07:36.352Z,3.00
2022-10-10T10:08:38.377Z,2.90
2022-10-10T10:09:40.139Z,2.70
2022-10-10T10:10:41.946Z,2.97
2022-10-10T10:11:47.077Z,2.60
2022-10-10T10:12:49.032Z,2.70
2022-10-10T10:13:56.567Z,2.60
2022-10-10T10:15:04.675Z,2.37
2022-10-10T10:16:14.927Z,2.47
2022-10-10T10:17:23.095Z,2.33
2022-10-10T10:18:28.774Z,2.30
2022-10-10T10:19:44.230Z,2.22
2022-10-10T10:21:09.924Z,2.53
2022-10-10T10:22:37.723Z,2.40
2022-10-10T10:23:44.508Z,2.33
2022-10-10T10:24:46.227Z,2.00
2022-10-10T10:26:02.582Z,2.15
2022-10-10T10:27:24.114Z,2.45
2022-10-10T10:28:26.585Z,1.80
2022-10-10T10:29:28.380Z,1.73
2022-10-10T10:30:34.203Z,1.90
2022-10-10T10:31:57.799Z,1.77
2022-10-10T10:33:40.746Z,2.20
2022-10-10T10:35:09.492Z,1.73
2022-10-10T10:36:42.631Z,2.00
2022-10-10T10:38:05.463Z,2.03
2022-10-10T10:39:36.457Z,1.80
2022-10-10T10:40:47.769Z,2.47
2022-10-10T10:42:48.959Z,2.30
2022-10-10T10:44:44.937Z,2.22
2022-10-10T10:46:21.115Z,2.08
2022-10-10T10:47:22.816Z,1.55
2022-10-10T10:48:39.621Z,2.20
2022-10-10T10:50:20.544Z,1.83
2022-10-10T10:51:56.153Z,1.75
2022-10-10T10:53:09.837Z,1.90
2022-10-10T10:54:26.841Z,1.73
2022-10-10T10:56:02.647Z,1.80
2022-10-10T11:01:38.383Z,1.73
2022-10-10T11:02:57.664Z,1.73
2022-10-10T11:05:22.860Z,1.98
2022-10-10T11:06:00.860Z,1.70
2022-10-10T11:07:21.522Z,1.65
2022-10-10T11:08:57.655Z,1.80
2022-10-10T11:10:17.780Z,1.58
2022-10-10T11:12:04.421Z,1.83
2022-10-10T11:13:33.055Z,1.73
2022-10-10T11:15:23.615Z,1.70
2022-10-10T11:16:56.329Z,2.20
2022-10-10T11:18:18.856Z,1.92
2022-10-10T11:19:38.977Z,2.20
2022-10-10T11:21:20.803Z,2.28
2022-10-10T11:22:48.140Z,2.00
2022-10-10T11:24:00.654Z,1.98
2022-10-10T11:25:26.576Z,1.80
2022-10-10T11:26:42.251Z,1.98
2022-10-10T11:27:57.636Z,1.90
2022-10-10T11:29:05.880Z,2.05
2022-10-10T11:30:18.148Z,1.90
2022-10-10T11:31:33.921Z,1.73
2022-10-10T11:33:10.163Z,2.15
2022-10-10T11:34:25.667Z,2.00
2022-10-10T11:35:44.984Z,2.00
2022-10-10T11:36:48.695Z,2.10
2022-10-10T11:38:01.553Z,2.22
2022-10-10T11:39:21.796Z,2.00
2022-10-10T11:40:51.321Z,2.40
2022-10-10T11:42:25.148Z,2.92
2022-10-10T11:43:57.205Z,2.13
2022-10-10T11:45:15.945Z,2.08
2022-10-10T11:47:13.785Z,2.28
2022-10-10T11:48:41.805Z,2.25
2022-10-10T11:50:12.693Z,2.15
2022-10-10T11:51:42.739Z,1.67
2022-10-10T11:53:21.163Z,2.08
2022-10-10T11:55:15.757Z,2.30
2022-10-10T11:56:40.967Z,1.80
2022-10-10T11:57:53.346Z,1.80
2022-10-10T11:59:07.413Z,1.92
2022-10-10T12:00:18.195Z,1.52
2022-10-10T12:01:33.705Z,2.00
2022-10-10T12:02:42.838Z,2.30
2022-10-10T12:03:44.559Z,1.80
2022-10-10T12:04:47.014Z,1.88
2022-10-10T12:06:00.478Z,1.95
2022-10-10T12:07:21.139Z,1.77
2022-10-10T12:08:42.248Z,1.85
2022-10-10T12:09:52.208Z,1.60
2022-10-10T12:11:00.585Z,1.50
2022-10-10T12:12:15.007Z,1.88
2022-10-10T12:13:37.013Z,1.90
2022-10-10T12:14:48.045Z,1.67
2022-10-10T12:15:54.378Z,2.00
2022-10-10T12:16:57.350Z,1.83
2022-10-10T12:17:59.692Z,2.00
2022-10-10T12:19:22.213Z,1.90
2022-10-10T12:20:26.972Z,1.83
2022-10-10T12:21:31.463Z,1.70
2022-10-10T12:22:33.223Z,1.90
2022-10-10T12:23:35.977Z,1.80
2022-10-10T12:25:07.118Z,1.80
2022-10-10T12:26:22.377Z,1.88
2022-10-10T12:27:49.106Z,1.65
2022-10-10T12:29:09.700Z,2.10
2022-10-10T12:30:24.977Z,2.00
2022-10-10T12:31:38.696Z,2.03
2022-10-10T12:32:42.336Z,1.70
2022-10-10T12:33:44.820Z,1.50
2022-10-10T12:34:49.349Z,2.00
2022-10-10T12:35:51.241Z,1.95
2022-10-10T12:37:11.064Z,1.85
2022-10-10T12:38:28.395Z,1.75
2022-10-10T12:39:36.346Z,2.10
2022-10-10T12:40:57.170Z,1.80
2022-10-10T12:41:58.892Z,2.00
2022-10-10T12:43:23.308Z,1.70
2022-10-10T12:44:35.385Z,2.00
2022-10-10T12:45:36.992Z,1.95
2022-10-10T12:46:38.872Z,2.28
2022-10-10T12:48:04.537Z,1.90
2022-10-10T12:49:23.545Z,1.88
2022-10-10T12:50:36.342Z,1.88
2022-10-10T12:51:39.042Z,1.80
2022-10-10T12:52:53.080Z,1.90
2022-10-10T12:53:59.508Z,1.65
2022-10-10T12:55:23.520Z,1.85
2022-10-10T12:56:44.611Z,1.90
2022-10-10T12:57:49.218Z,1.95
2022-10-10T12:58:50.982Z,2.08
2022-10-10T12:59:53.223Z,2.20
2022-10-10T13:01:22.144Z,2.00
2022-10-10T13:02:28.261Z,1.90
2022-10-10T13:03:46.426Z,1.80
2022-10-10T13:04:53.193Z,1.90
2022-10-10T13:06:02.465Z,1.90
2022-10-10T13:07:05.064Z,2.22
2022-10-10T13:08:15.438Z,1.90
2022-10-10T13:09:27.361Z,2.00
2022-10-10T13:10:33.085Z,1.95
2022-10-10T13:11:51.326Z,1.80
2022-10-10T13:13:19.990Z,2.00
2022-10-10T13:14:23.088Z,1.85
2022-10-10T13:15:24.884Z,1.67
2022-10-10T13:16:33.789Z,1.90
2022-10-10T13:17:41.717Z,1.67
2022-10-10T13:18:59.330Z,2.10
2022-10-10T13:20:02.711Z,1.98
2022-10-10T13:21:09.112Z,1.83
2022-10-10T13:22:11.097Z,2.30
2022-10-10T13:23:15.257Z,2.00
2022-10-10T13:24:24.429Z,2.03
2022-10-10T13:25:27.394Z,2.28
2022-10-10T13:26:39.911Z,1.88
2022-10-10T13:27:43.258Z,1.70
2022-10-10T13:28:45.423Z,2.10
2022-10-10T13:29:47.728Z,1.80
2022-10-10T13:30:51.607Z,1.73
2022-10-10T13:31:59.711Z,1.80
2022-10-10T13:33:01.645Z,2.00
2022-10-10T13:34:07.214Z,1.98
2022-10-10T13:35:19.801Z,2.28
2022-10-10T13:36:22.407Z,2.10
2022-10-10T13:37:25.591Z,1.90
2022-10-10T13:38:27.495Z,2.35
2022-10-10T13:39:33.267Z,1.67
2022-10-10T13:40:35.049Z,1.50
2022-10-10T13:41:36.900Z,1.88
2022-10-10T13:42:40.687Z,2.00
2022-10-10T13:43:42.632Z,1.90
2022-10-10T13:44:51.904Z,2.13
2022-10-10T13:46:03.686Z,1.98
2022-10-10T13:47:45.508Z,2.08
2022-10-10T13:48:52.801Z,1.88
2022-10-10T13:49:56.782Z,1.87
2022-10-10T13:51:14.756Z,2.20
2022-10-10T13:52:23.937Z,1.70
2022-10-10T13:53:28.938Z,1.60
2022-10-10T13:54:44.479Z,1.90
2022-10-10T13:55:46.242Z,1.75
2022-10-10T13:56:48.025Z,1.80
2022-10-10T13:57:51.223Z,1.90
2022-10-10T13:59:01.769Z,1.90
2022-10-10T14:00:24.682Z,1.80
2022-10-10T14:01:41.361Z,1.93
2022-10-10T14:02:45.736Z,2.30
2022-10-10T14:03:50.790Z,1.90
2022-10-10T14:04:54.308Z,1.50
2022-10-10T14:05:56.694Z,1.90
2022-10-10T14:07:19.915Z,2.10
2022-10-10T14:08:33.604Z,1.80
2022-10-10T14:09:53.384Z,2.00
2022-10-10T14:10:59.139Z,1.90
2022-10-10T14:12:04.811Z,1.60
2022-10-10T14:13:15.987Z,1.77
2022-10-10T14:14:24.753Z,1.63
2022-10-10T14:15:43.252Z,1.70
2022-10-10T14:16:45.079Z,2.03
2022-10-10T14:17:46.807Z,2.07
2022-10-10T14:18:49.452Z,1.93
2022-10-10T14:19:52.614Z,1.70
2022-10-10T14:20:55.374Z,1.73
2022-10-10T14:21:57.432Z,1.80
2022-10-10T14:23:01.640Z,2.00
2022-10-10T14:24:03.489Z,2.17
2022-10-10T14:25:05.792Z,2.10
2022-10-10T14:26:15.672Z,1.93
2022-10-10T14:27:20.033Z,1.90
2022-10-10T14:28:26.548Z,2.00
2022-10-10T14:29:29.452Z,2.20
2022-10-10T14:30:31.574Z,1.77
2022-10-10T14:31:33.271Z,1.90
2022-10-10T14:32:34.968Z,1.77
2022-10-10T14:33:36.969Z,2.20
2022-10-10T14:34:39.410Z,1.67
2022-10-10T14:35:42.529Z,1.80
2022-10-10T14:36:50.115Z,2.00
2022-10-10T14:37:51.857Z,1.80
2022-10-10T14:38:53.593Z,2.20
2022-10-10T14:39:55.987Z,1.90
2022-10-10T14:40:57.781Z,1.77
2022-10-10T14:42:02.480Z,2.00
2022-10-10T14:43:04.373Z,1.50
2022-10-10T14:44:06.256Z,1.90
2022-10-10T14:45:14.239Z,2.10
2022-10-10T14:46:19.643Z,2.13
2022-10-10T14:47:24.998Z,2.10
2022-10-10T14:48:26.791Z,2.30
2022-10-10T14:49:28.505Z,2.30
2022-10-10T14:50:41.364Z,2.20
2022-10-10T14:51:43.085Z,1.87
2022-10-10T14:52:45.098Z,2.20
2022-10-10T14:53:46.828Z,2.10
2022-10-10T14:55:12.007Z,1.93
2022-10-10T14:56:13.822Z,1.80
2022-10-10T14:57:15.716Z,2.00
2022-10-10T14:58:21.076Z,2.00
2022-10-10T14:59:48.311Z,1.80
2022-10-10T15:00:45.597Z,1.97
2022-10-10T15:01:48.550Z,2.00
2022-10-10T15:02:50.361Z,1.83
2022-10-10T15:03:52.090Z,2.43
2022-10-10T15:04:53.848Z,2.07
2022-10-10T15:05:55.645Z,2.17
2022-10-10T15:07:12.271Z,1.90
2022-10-10T15:08:17.513Z,2.07
2022-10-10T15:09:40.088Z,2.03
2022-10-10T15:10:42.748Z,2.00
2022-10-10T15:11:44.454Z,1.93